Glasgow, MT

6:29 AM MDT on April 26, 2015 (GMT -0600)
APRSWXNET | | Change Station
CLOSE
Current Station
Personal Weather Station
Location: Glasgow, MT
Elevation: 2211 ft
Nearby Weather Stations

Elev 2211 ft 48.19 °N, 106.61 °W | Updated 24 minutes ago

Overcast
Overcast
39 °F
Feels Like 33 °F
N
8
Wind Variable Wind from WNW
Gusts 13.0 mph

Today
High -- | Low -- °F
--% Chance of Precip.
Yesterday
High -- | Low -- °F
Precip. -- in
5:56 AM 8:12 PM
First Quarter, 55% visible
Pressure 30.07 in
Visibility 10.0 miles
Clouds Overcast 2100 ft
Windchill 33 °F
Dew Point 34 °F
Humidity 81%
Rainfall in
Snow Depth Not available.
UV 0 out of 12
Pollen 8.80 out of 12
Air Quality Not available.
Flu Activity Local Activity
METAR KGGW 261153Z AUTO 32008KT 10SM OVC021 03/01 A3002 RMK AO2 SLP183 70066 T00330006 10050 20028 53020 TSNO

More Conditions Fewer Conditions

Pressure 30.07 in
Visibility 10.0 miles
Clouds Overcast 2100 ft
Windchill 33 °F
Dew Point 34 °F
Humidity 81%
Rainfall in
Snow Depth Not available.
UV 0 out of 12
Pollen 8.80 out of 12
Air Quality Not available.
Flu Activity Local Activity
METAR KGGW 261153Z AUTO 32008KT 10SM OVC021 03/01 A3002 RMK AO2 SLP183 70066 T00330006 10050 20028 53020 TSNO

More Conditions Fewer Conditions

The full scope of the disaster following a powerful 7.8-magnitude earthquake in Nepal may not come into view for days, but global charities are already sending emergency aid. Click to see how you can help.

10-Day Weather Forecast

Almanac

Astronomy

Apr. 26, 2015 Rise Set
Actual Time
Civil Twilight
Nautical Twilight
Astronomical Twilight
Moon
Length of Visible Light
Length of Day
Tomorrow will be .
, % of the Moon is Illuminated

Today's Extremes

State Highs State Lows

Community

WunderPhotos

Upload Photos

1,816,969 photos uploaded!

WunderBlogs® & News

Nearby

Air Quality

  Air Quality AQ Index Pollutant
Not available.

Snow Depth

Station Depth Elevation

Earthquake Activity

City Distance Mag. Time & Date
Minimum magnitude displayed is 2.5.

Coastal Water Temperatures

Place Temperature

Stations

Nearby Weather Stations

Station Location Temp. Windchill Dew Point Humidity Wind Precip. Elev Updated Type